Oxford, NE (68967)

01:24 PM CDT del 30 Maggio 2015 (GMT -0500)
Brewster | | Change Station
CLOSE
Current Station
Aeroporto
Location: Holdrege,
Altitudine: 2310 ft
Stazioni meteo nelle vicinanze

Alt. 2310 ft 40.45 °N, 99.34 °W | Updated 9 minutes ago

Sereno
Sereno
59 °F
Sembra 59 °F
N
14
Vento Variabile Vento da NNE
Gusts 20 mph

Oggi
Massima -- | Minima -- °F
--% Possibilità di precip.
Ieri
Massima -- | Minima -- °F
Precip. -- in
6:12 AM 9:00 PM
Gobba a ponente, 91% visible
Pressione 30.26 in
Visibilità 10.0 miglia
Nuvole Sereno
Punto di rugiada 42 °F
Umidità 52%
Piovosità 0.00 in
Spessore del manto nevoso Non disponibile.
Raggi UV 12 fuori da 12
Polline 7.70 fuori da 12
Qualità dell'aria Non disponibile.
Flu Activity No Activity
METAR KHDE 301815Z AUTO 03012G17KT 10SM CLR 15/05 A3026 RMK AO2 T01500053

More Conditions Fewer Conditions

Pressione 30.26 in
Visibilità 10.0 miglia
Nuvole Sereno
Punto di rugiada 42 °F
Umidità 52%
Piovosità 0.00 in
Spessore del manto nevoso Non disponibile.
Raggi UV 12 fuori da 12
Polline 7.70 fuori da 12
Qualità dell'aria Non disponibile.
Flu Activity No Activity
METAR KHDE 301815Z AUTO 03012G17KT 10SM CLR 15/05 A3026 RMK AO2 T01500053

More Conditions Fewer Conditions

10-Day Weather Forecast

Almanac

Astronomia

May. 30, 2015 Alba Tramonto
Ora attuale
Crepuscolo civile
Crepuscolo nautico
Crepuscolo astronomico
Luna
Estensione della luce visibile
Lunghezza del giorno
Tomorrow will be .
, % of the Moon is Illuminated

Gli estremi di oggi

State Highs State Lows

Community

WunderPhotos

Upload Photos

1,825,595 foto caricate!

WunderBlogs® & News

Nearby

Qualità dell'aria

  Qualità dell'aria Indice AQ Inquinante
Not available.

Profondità neve

Stazione Profondità Altitudine

Attività sismica

Città  Distanza Mag. Data & Ora
Minimo Magnitudo Mostrato è 2.5.

Temperature delle acque costiere

Località Temperatura

Stations

Stazioni meteo nelle vicinanze

Ubicazione della stazione Temp. Raffreddamento del vento Punto di rugiada Umidità Vento Precip. Alt. Aggiornato Tipo